Overview Statistics Trail Chart Weather Telemetry Raw packets
 

This is the latest recevied weather packets stored in our database for station/object F8KHU-13. If no packets are shown the sender has not sent any weather packets the latest 10 day(s).

<< 26 27 28 29 30 31 32 >>
Time Temp. Humidity Pressure Rain* Wind** Luminosity Snow
1788360042 27.78° C 24% 1021.4 hPa 0 mm - 0 W/m² -
1788360023 27.78° C 24% 1021.4 hPa 0 mm - 0 W/m² -
1788359162 28.89° C 22% 1021.3 hPa 0 mm - 0 W/m² -
1788359143 28.89° C 22% 1021.3 hPa 0 mm - 0 W/m² -
1788359122 28.89° C 23% 1021.3 hPa 0 mm - 0 W/m² -
1788358262 26.67° C 24% 1021.5 hPa 0 mm - 0 W/m² -
1788358243 26.67° C 24% 1021.4 hPa 0 mm - 0 W/m² -
1788358223 26.67° C 24% 1021.4 hPa 0 mm - 0 W/m² -
1788357363 27.78° C 23% 1021.6 hPa 0 mm - 0 W/m² -
1788357343 26.67° C 24% 1021.5 hPa 0 mm - 0 W/m² -
1788357323 26.67° C 24% 1021.4 hPa 0 mm - 0 W/m² -
1788356443 23.89° C 25% 1021.6 hPa 0 mm - 0 W/m² -
1788355564 25.56° C 24% 1021.6 hPa 0 mm - 0 W/m² -
1788355543 25° C 25% 1021.5 hPa 0 mm - 0 W/m² -
1788355523 25.56° C 25% 1021.6 hPa 0 mm - 0 W/m² -
1788354663 28.89° C 23% 1021.5 hPa 0 mm - 0 W/m² -
1788354643 28.89° C 23% 1021.4 hPa 0 mm - 0 W/m² -
1788354632 28.89° C 23% 1021.5 hPa 0 mm - 0 W/m² -
1788353763 31.11° C 21% 1021.5 hPa 0 mm - 0 W/m² -
1788353743 31.11° C 20% 1021.5 hPa 0 mm - 0 W/m² -
1788352863 29.44° C 22% 1021.6 hPa 0 mm - 0 W/m² -
1788352823 29.44° C 22% 1021.5 hPa 0 mm - 0 W/m² -
1788351964 25.56° C 25% 1021.5 hPa 0 mm - 0 W/m² -
1788351943 26.67° C 24% 1021.6 hPa 0 mm - 0 W/m² -
1788351924 25.56° C 25% 1021.6 hPa 0 mm - 0 W/m² -

* Rain latest hour (hover to see other rain measurements)
** Current wind speed in m/s (hover to see current wind gust speed)